sensor_id;sensor_type;location;lat;lon;timestamp;pressure;altitude;pressure_sealevel;temperature;humidity
46015;BME280;36844;51.898;-0.874;2024-01-15T00:02:02;99865.28;;;18.46;
46015;BME280;36844;51.898;-0.874;2024-01-15T00:04:28;99869.50;;;18.47;
46015;BME280;36844;51.898;-0.874;2024-01-15T00:06:53;99849.22;;;18.39;
46015;BME280;36844;51.898;-0.874;2024-01-15T00:09:19;99852.69;;;18.39;
46015;BME280;36844;51.898;-0.874;2024-01-15T00:11:44;99844.31;;;18.34;
46015;BME280;36844;51.898;-0.874;2024-01-15T00:14:10;99846.31;;;18.30;
46015;BME280;36844;51.898;-0.874;2024-01-15T00:16:35;99853.94;;;18.35;
46015;BME280;36844;51.898;-0.874;2024-01-15T00:19:00;99838.69;;;18.25;
46015;BME280;36844;51.898;-0.874;2024-01-15T00:21:26;99853.25;;;18.31;
46015;BME280;36844;51.898;-0.874;2024-01-15T00:23:53;99850.16;;;18.29;
46015;BME280;36844;51.898;-0.874;2024-01-15T00:26:18;99851.84;;;18.23;
46015;BME280;36844;51.898;-0.874;2024-01-15T00:28:43;99850.34;;;18.18;
46015;BME280;36844;51.898;-0.874;2024-01-15T00:31:09;99846.56;;;18.16;
46015;BME280;36844;51.898;-0.874;2024-01-15T00:33:34;99838.63;;;18.09;
46015;BME280;36844;51.898;-0.874;2024-01-15T00:35:59;99850.47;;;18.11;
46015;BME280;36844;51.898;-0.874;2024-01-15T00:38:25;99831.31;;;18.06;
46015;BME280;36844;51.898;-0.874;2024-01-15T00:40:50;99839.81;;;18.04;
46015;BME280;36844;51.898;-0.874;2024-01-15T00:43:15;99826.13;;;17.95;
46015;BME280;36844;51.898;-0.874;2024-01-15T00:45:43;99847.84;;;18.08;
46015;BME280;36844;51.898;-0.874;2024-01-15T00:48:08;99841.03;;;18.00;
46015;BME280;36844;51.898;-0.874;2024-01-15T00:50:34;99838.81;;;17.95;
46015;BME280;36844;51.898;-0.874;2024-01-15T00:52:59;99851.81;;;18.00;
46015;BME280;36844;51.898;-0.874;2024-01-15T00:55:24;99848.41;;;17.96;
46015;BME280;36844;51.898;-0.874;2024-01-15T00:57:50;99840.44;;;17.89;
46015;BME280;36844;51.898;-0.874;2024-01-15T01:00:15;99843.50;;;17.91;
46015;BME280;36844;51.898;-0.874;2024-01-15T01:02:41;99825.19;;;17.82;
46015;BME280;36844;51.898;-0.874;2024-01-15T01:05:07;99818.72;;;17.76;
46015;BME280;36844;51.898;-0.874;2024-01-15T01:07:32;99804.97;;;17.70;
46015;BME280;36844;51.898;-0.874;2024-01-15T01:09:57;99823.22;;;17.83;
46015;BME280;36844;51.898;-0.874;2024-01-15T01:12:22;99816.09;;;17.72;
46015;BME280;36844;51.898;-0.874;2024-01-15T01:14:48;99824.81;;;17.80;
46015;BME280;36844;51.898;-0.874;2024-01-15T01:17:13;99822.53;;;17.78;
46015;BME280;36844;51.898;-0.874;2024-01-15T01:19:39;99822.63;;;17.71;
46015;BME280;36844;51.898;-0.874;2024-01-15T01:22:04;99824.19;;;17.72;
46015;BME280;36844;51.898;-0.874;2024-01-15T01:24:30;99817.66;;;17.70;
46015;BME280;36844;51.898;-0.874;2024-01-15T01:26:55;99807.47;;;17.58;
46015;BME280;36844;51.898;-0.874;2024-01-15T01:29:20;99817.06;;;17.59;
46015;BME280;36844;51.898;-0.874;2024-01-15T01:31:46;99823.91;;;17.63;
46015;BME280;36844;51.898;-0.874;2024-01-15T01:34:16;99814.38;;;17.59;
46015;BME280;36844;51.898;-0.874;2024-01-15T01:36:42;99814.38;;;17.59;
46015;BME280;36844;51.898;-0.874;2024-01-15T01:39:08;99816.75;;;17.53;
46015;BME280;36844;51.898;-0.874;2024-01-15T01:41:34;99819.03;;;17.55;
46015;BME280;36844;51.898;-0.874;2024-01-15T01:43:59;99799.25;;;17.42;
46015;BME280;36844;51.898;-0.874;2024-01-15T01:46:26;99813.03;;;17.47;
46015;BME280;36844;51.898;-0.874;2024-01-15T01:48:52;99805.38;;;17.42;
46015;BME280;36844;51.898;-0.874;2024-01-15T01:51:18;99800.50;;;17.34;
46015;BME280;36844;51.898;-0.874;2024-01-15T01:53:45;99804.63;;;17.42;
46015;BME280;36844;51.898;-0.874;2024-01-15T01:56:11;99815.38;;;17.42;
46015;BME280;36844;51.898;-0.874;2024-01-15T01:58:37;99803.56;;;17.36;
46015;BME280;36844;51.898;-0.874;2024-01-15T02:01:03;99810.16;;;17.31;
46015;BME280;36844;51.898;-0.874;2024-01-15T02:03:30;99818.97;;;17.35;
46015;BME280;36844;51.898;-0.874;2024-01-15T02:05:56;99812.84;;;17.31;
46015;BME280;36844;51.898;-0.874;2024-01-15T02:08:21;99807.09;;;17.29;
46015;BME280;36844;51.898;-0.874;2024-01-15T02:10:47;99809.78;;;17.29;
46015;BME280;36844;51.898;-0.874;2024-01-15T02:13:12;99807.19;;;17.22;
46015;BME280;36844;51.898;-0.874;2024-01-15T02:15:37;99792.69;;;17.16;
46015;BME280;36844;51.898;-0.874;2024-01-15T02:18:04;99797.28;;;17.16;
46015;BME280;36844;51.898;-0.874;2024-01-15T02:20:30;99809.09;;;17.22;
46015;BME280;36844;51.898;-0.874;2024-01-15T02:25:39;99792.75;;;17.09;
46015;BME280;36844;51.898;-0.874;2024-01-15T02:28:06;99793.47;;;17.17;
46015;BME280;36844;51.898;-0.874;2024-01-15T02:30:31;99797.69;;;17.14;
46015;BME280;36844;51.898;-0.874;2024-01-15T02:32:57;99808.09;;;17.12;
46015;BME280;36844;51.898;-0.874;2024-01-15T02:35:23;99795.56;;;17.02;
46015;BME280;36844;51.898;-0.874;2024-01-15T02:37:48;99809.69;;;17.10;
46015;BME280;36844;51.898;-0.874;2024-01-15T02:40:13;99795.97;;;17.01;
46015;BME280;36844;51.898;-0.874;2024-01-15T02:42:39;99810.50;;;17.03;
46015;BME280;36844;51.898;-0.874;2024-01-15T02:45:04;99795.25;;;16.97;
46015;BME280;36844;51.898;-0.874;2024-01-15T02:47:30;99809.00;;;17.02;
46015;BME280;36844;51.898;-0.874;2024-01-15T02:49:55;99806.72;;;17.01;
46015;BME280;36844;51.898;-0.874;2024-01-15T02:52:20;99799.03;;;16.99;
46015;BME280;36844;51.898;-0.874;2024-01-15T02:54:47;99797.94;;;16.97;
46015;BME280;36844;51.898;-0.874;2024-01-15T02:57:12;99784.25;;;16.84;
46015;BME280;36844;51.898;-0.874;2024-01-15T02:59:37;99798.03;;;16.90;
46015;BME280;36844;51.898;-0.874;2024-01-15T03:02:03;99797.25;;;16.89;
46015;BME280;36844;51.898;-0.874;2024-01-15T03:04:28;99780.06;;;16.79;
46015;BME280;36844;51.898;-0.874;2024-01-15T03:06:53;99773.56;;;16.77;
46015;BME280;36844;51.898;-0.874;2024-01-15T03:09:19;99777.75;;;16.82;
46015;BME280;36844;51.898;-0.874;2024-01-15T03:11:44;99786.63;;;16.78;
46015;BME280;36844;51.898;-0.874;2024-01-15T03:14:09;99780.09;;;16.76;
46015;BME280;36844;51.898;-0.874;2024-01-15T03:16:35;99778.63;;;16.71;
46015;BME280;36844;51.898;-0.874;2024-01-15T03:19:01;99782.09;;;16.68;
46015;BME280;36844;51.898;-0.874;2024-01-15T03:21:26;99778.38;;;16.62;
46015;BME280;36844;51.898;-0.874;2024-01-15T03:23:51;99796.69;;;16.71;
46015;BME280;36844;51.898;-0.874;2024-01-15T03:26:16;99789.44;;;16.68;
46015;BME280;36844;51.898;-0.874;2024-01-15T03:28:42;99790.19;;;16.68;
46015;BME280;36844;51.898;-0.874;2024-01-15T03:31:07;99794.03;;;16.67;
46015;BME280;36844;51.898;-0.874;2024-01-15T03:33:32;99799.38;;;16.71;
46015;BME280;36844;51.898;-0.874;2024-01-15T03:35:58;99796.72;;;16.67;
46015;BME280;36844;51.898;-0.874;2024-01-15T03:38:24;99788.75;;;16.60;
46015;BME280;36844;51.898;-0.874;2024-01-15T03:40:49;99794.44;;;16.66;
46015;BME280;36844;51.898;-0.874;2024-01-15T03:43:15;99782.66;;;16.53;
46015;BME280;36844;51.898;-0.874;2024-01-15T03:45:40;99775.72;;;16.55;
46015;BME280;36844;51.898;-0.874;2024-01-15T03:48:06;99786.47;;;16.59;
46015;BME280;36844;51.898;-0.874;2024-01-15T03:50:31;99789.22;;;16.52;
46015;BME280;36844;51.898;-0.874;2024-01-15T03:52:56;99786.16;;;16.50;
46015;BME280;36844;51.898;-0.874;2024-01-15T03:55:21;99802.97;;;16.57;
46015;BME280;36844;51.898;-0.874;2024-01-15T03:57:47;99788.09;;;16.49;
46015;BME280;36844;51.898;-0.874;2024-01-15T04:00:14;99785.06;;;16.44;
46015;BME280;36844;51.898;-0.874;2024-01-15T04:02:40;99783.16;;;16.44;
46015;BME280;36844;51.898;-0.874;2024-01-15T04:05:05;99772.84;;;16.39;
46015;BME280;36844;51.898;-0.874;2024-01-15T04:07:30;99762.56;;;16.31;
46015;BME280;36844;51.898;-0.874;2024-01-15T04:09:56;99792.34;;;16.47;
46015;BME280;36844;51.898;-0.874;2024-01-15T04:12:21;99788.94;;;16.43;
46015;BME280;36844;51.898;-0.874;2024-01-15T04:14:46;99792.38;;;16.43;
46015;BME280;36844;51.898;-0.874;2024-01-15T04:17:12;99777.84;;;16.37;
46015;BME280;36844;51.898;-0.874;2024-01-15T04:19:37;99781.28;;;16.38;
46015;BME280;36844;51.898;-0.874;2024-01-15T04:22:02;99771.72;;;16.33;
46015;BME280;36844;51.898;-0.874;2024-01-15T04:24:28;99775.91;;;16.38;
46015;BME280;36844;51.898;-0.874;2024-01-15T04:26:53;99759.19;;;16.23;
46015;BME280;36844;51.898;-0.874;2024-01-15T04:29:18;99764.47;;;16.30;
46015;BME280;36844;51.898;-0.874;2024-01-15T04:31:44;99752.22;;;16.26;
46015;BME280;36844;51.898;-0.874;2024-01-15T04:34:09;99772.53;;;16.30;
46015;BME280;36844;51.898;-0.874;2024-01-15T04:36:40;99771.03;;;16.26;
46015;BME280;36844;51.898;-0.874;2024-01-15T04:39:06;99780.28;;;16.25;
46015;BME280;36844;51.898;-0.874;2024-01-15T04:41:32;99741.69;;;16.08;
46015;BME280;36844;51.898;-0.874;2024-01-15T04:43:58;99776.41;;;16.26;
46015;BME280;36844;51.898;-0.874;2024-01-15T04:46:25;99767.38;;;16.13;
46015;BME280;36844;51.898;-0.874;2024-01-15T04:48:50;99774.91;;;16.25;
46015;BME280;36844;51.898;-0.874;2024-01-15T04:51:16;99777.63;;;16.18;
46015;BME280;36844;51.898;-0.874;2024-01-15T04:53:41;99764.69;;;16.13;
46015;BME280;36844;51.898;-0.874;2024-01-15T04:56:06;99759.31;;;16.06;
46015;BME280;36844;51.898;-0.874;2024-01-15T04:58:32;99781.91;;;16.15;
46015;BME280;36844;51.898;-0.874;2024-01-15T05:00:57;99784.53;;;16.19;
46015;BME280;36844;51.898;-0.874;2024-01-15T05:03:22;99772.00;;;16.09;
46015;BME280;36844;51.898;-0.874;2024-01-15T05:05:48;99782.31;;;16.10;
46015;BME280;36844;51.898;-0.874;2024-01-15T05:08:13;99778.50;;;16.08;
46015;BME280;36844;51.898;-0.874;2024-01-15T05:10:38;99781.22;;;16.08;
46015;BME280;36844;51.898;-0.874;2024-01-15T05:13:04;99778.16;;;16.09;
46015;BME280;36844;51.898;-0.874;2024-01-15T05:15:29;99769.31;;;16.09;
46015;BME280;36844;51.898;-0.874;2024-01-15T05:17:54;99754.84;;;15.96;
46015;BME280;36844;51.898;-0.874;2024-01-15T05:20:20;99775.16;;;15.97;
46015;BME280;36844;51.898;-0.874;2024-01-15T05:22:45;99786.25;;;15.99;
46015;BME280;36844;51.898;-0.874;2024-01-15T05:25:11;99782.06;;;15.94;
46015;BME280;36844;51.898;-0.874;2024-01-15T05:27:36;99784.38;;;15.96;
46015;BME280;36844;51.898;-0.874;2024-01-15T05:30:02;99788.16;;;16.02;
46015;BME280;36844;51.898;-0.874;2024-01-15T05:32:28;99784.75;;;15.98;
46015;BME280;36844;51.898;-0.874;2024-01-15T05:34:53;99763.72;;;15.89;
46015;BME280;36844;51.898;-0.874;2024-01-15T05:37:18;99764.09;;;15.87;
46015;BME280;36844;51.898;-0.874;2024-01-15T05:39:44;99784.75;;;15.98;
46015;BME280;36844;51.898;-0.874;2024-01-15T05:42:09;99780.19;;;15.91;
46015;BME280;36844;51.898;-0.874;2024-01-15T05:44:34;99784.38;;;15.96;
46015;BME280;36844;51.898;-0.874;2024-01-15T05:47:00;99775.66;;;15.84;
46015;BME280;36844;51.898;-0.874;2024-01-15T05:49:25;99785.16;;;15.93;
46015;BME280;36844;51.898;-0.874;2024-01-15T05:51:50;99788.22;;;15.91;
46015;BME280;36844;51.898;-0.874;2024-01-15T05:54:18;99776.75;;;15.87;
46015;BME280;36844;51.898;-0.874;2024-01-15T05:56:43;99775.69;;;15.81;
46015;BME280;36844;51.898;-0.874;2024-01-15T05:59:08;99785.66;;;15.80;
46015;BME280;36844;51.898;-0.874;2024-01-15T06:01:34;99783.28;;;15.86;
46015;BME280;36844;51.898;-0.874;2024-01-15T06:03:59;99768.03;;;15.76;
46015;BME280;36844;51.898;-0.874;2024-01-15T06:06:24;99766.44;;;15.78;
46015;BME280;36844;51.898;-0.874;2024-01-15T06:08:49;99771.81;;;15.78;
46015;BME280;36844;51.898;-0.874;2024-01-15T06:11:15;99769.25;;;15.68;
46015;BME280;36844;51.898;-0.874;2024-01-15T06:13:40;99781.47;;;15.72;
46015;BME280;36844;51.898;-0.874;2024-01-15T06:16:13;99795.97;;;15.78;
46015;BME280;36844;51.898;-0.874;2024-01-15T06:18:39;99789.53;;;15.72;
46015;BME280;36844;51.898;-0.874;2024-01-15T06:21:04;99781.13;;;15.70;
46015;BME280;36844;51.898;-0.874;2024-01-15T06:23:30;99788.75;;;15.72;
46015;BME280;36844;51.898;-0.874;2024-01-15T06:25:55;99786.84;;;15.72;
46015;BME280;36844;51.898;-0.874;2024-01-15T06:28:20;99769.66;;;15.59;
46015;BME280;36844;51.898;-0.874;2024-01-15T06:30:46;99798.69;;;15.75;
46015;BME280;36844;51.898;-0.874;2024-01-15T06:33:11;99782.28;;;15.66;
46015;BME280;36844;51.898;-0.874;2024-01-15T06:35:36;99796.78;;;15.75;
46015;BME280;36844;51.898;-0.874;2024-01-15T06:38:01;99781.16;;;15.63;
46015;BME280;36844;51.898;-0.874;2024-01-15T06:40:27;99806.38;;;15.76;
46015;BME280;36844;51.898;-0.874;2024-01-15T06:42:52;99803.31;;;15.74;
46015;BME280;36844;51.898;-0.874;2024-01-15T06:45:17;99797.22;;;15.70;
46015;BME280;36844;51.898;-0.874;2024-01-15T06:47:43;99784.16;;;15.72;
46015;BME280;36844;51.898;-0.874;2024-01-15T06:50:08;99778.03;;;15.72;
46015;BME280;36844;51.898;-0.874;2024-01-15T06:52:33;99772.28;;;15.73;
46015;BME280;36844;51.898;-0.874;2024-01-15T06:54:59;99787.94;;;15.85;
46015;BME280;36844;51.898;-0.874;2024-01-15T06:57:24;99780.66;;;15.79;
46015;BME280;36844;51.898;-0.874;2024-01-15T06:59:49;99792.06;;;15.90;
46015;BME280;36844;51.898;-0.874;2024-01-15T07:02:14;99800.13;;;15.94;
46015;BME280;36844;51.898;-0.874;2024-01-15T07:04:40;99796.69;;;15.93;
46015;BME280;36844;51.898;-0.874;2024-01-15T07:07:05;99769.91;;;15.79;
46015;BME280;36844;51.898;-0.874;2024-01-15T07:09:30;99790.09;;;16.01;
46015;BME280;36844;51.898;-0.874;2024-01-15T07:11:56;99778.97;;;15.99;
46015;BME280;36844;51.898;-0.874;2024-01-15T07:14:22;99781.63;;;16.03;
46015;BME280;36844;51.898;-0.874;2024-01-15T07:16:48;99774.72;;;16.05;
46015;BME280;36844;51.898;-0.874;2024-01-15T07:19:13;99794.56;;;16.15;
46015;BME280;36844;51.898;-0.874;2024-01-15T07:21:38;99789.19;;;16.15;
46015;BME280;36844;51.898;-0.874;2024-01-15T07:24:05;99784.97;;;16.14;
46015;BME280;36844;51.898;-0.874;2024-01-15T07:26:30;99805.94;;;16.29;
46015;BME280;36844;51.898;-0.874;2024-01-15T07:28:56;99810.47;;;16.39;
46015;BME280;36844;51.898;-0.874;2024-01-15T07:31:21;99807.00;;;16.39;
46015;BME280;36844;51.898;-0.874;2024-01-15T07:33:47;99825.72;;;16.49;
46015;BME280;36844;51.898;-0.874;2024-01-15T07:36:12;99804.25;;;16.46;
46015;BME280;36844;51.898;-0.874;2024-01-15T07:38:37;99801.91;;;16.51;
46015;BME280;36844;51.898;-0.874;2024-01-15T07:41:03;99801.16;;;16.51;
46015;BME280;36844;51.898;-0.874;2024-01-15T07:43:29;99811.00;;;16.61;
46015;BME280;36844;51.898;-0.874;2024-01-15T07:45:54;99820.56;;;16.65;
46015;BME280;36844;51.898;-0.874;2024-01-15T07:48:19;99827.81;;;16.72;
46015;BME280;36844;51.898;-0.874;2024-01-15T07:50:45;99821.56;;;16.78;
46015;BME280;36844;51.898;-0.874;2024-01-15T07:53:11;99831.13;;;16.83;
46015;BME280;36844;51.898;-0.874;2024-01-15T07:55:36;99827.25;;;16.84;
46015;BME280;36844;51.898;-0.874;2024-01-15T07:58:01;99815.00;;;16.83;
46015;BME280;36844;51.898;-0.874;2024-01-15T08:00:27;99824.09;;;16.93;
46015;BME280;36844;51.898;-0.874;2024-01-15T08:02:52;99827.06;;;17.02;
46015;BME280;36844;51.898;-0.874;2024-01-15T08:05:18;99819.72;;;17.06;
46015;BME280;36844;51.898;-0.874;2024-01-15T08:07:43;99818.97;;;17.05;
46015;BME280;36844;51.898;-0.874;2024-01-15T08:10:09;99812.06;;;17.04;
46015;BME280;36844;51.898;-0.874;2024-01-15T08:12:34;99817.75;;;17.10;
46015;BME280;36844;51.898;-0.874;2024-01-15T08:14:59;99821.50;;;17.16;
46015;BME280;36844;51.898;-0.874;2024-01-15T08:17:25;99846.41;;;17.23;
46015;BME280;36844;51.898;-0.874;2024-01-15T08:19:54;99845.69;;;17.19;
46015;BME280;36844;51.898;-0.874;2024-01-15T08:22:19;99828.81;;;17.15;
46015;BME280;36844;51.898;-0.874;2024-01-15T08:24:45;99851.78;;;17.23;
46015;BME280;36844;51.898;-0.874;2024-01-15T08:27:10;99865.47;;;17.36;
46015;BME280;36844;51.898;-0.874;2024-01-15T08:29:36;99860.81;;;17.36;
46015;BME280;36844;51.898;-0.874;2024-01-15T08:32:01;99851.31;;;17.32;
46015;BME280;36844;51.898;-0.874;2024-01-15T08:34:26;99865.75;;;17.41;
46015;BME280;36844;51.898;-0.874;2024-01-15T08:36:52;99869.56;;;17.44;
46015;BME280;36844;51.898;-0.874;2024-01-15T08:39:17;99856.16;;;17.40;
46015;BME280;36844;51.898;-0.874;2024-01-15T08:41:44;99878.28;;;17.51;
46015;BME280;36844;51.898;-0.874;2024-01-15T08:44:11;99875.66;;;17.48;
46015;BME280;36844;51.898;-0.874;2024-01-15T08:46:36;99883.69;;;17.51;
46015;BME280;36844;51.898;-0.874;2024-01-15T08:49:02;99883.03;;;17.47;
46015;BME280;36844;51.898;-0.874;2024-01-15T08:51:28;99892.97;;;17.50;
46015;BME280;36844;51.898;-0.874;2024-01-15T08:53:54;99897.53;;;17.53;
46015;BME280;36844;51.898;-0.874;2024-01-15T08:56:19;99897.47;;;17.57;
46015;BME280;36844;51.898;-0.874;2024-01-15T08:58:44;99900.59;;;17.52;
46015;BME280;36844;51.898;-0.874;2024-01-15T09:01:11;99884.59;;;17.41;
46015;BME280;36844;51.898;-0.874;2024-01-15T09:03:36;99903.69;;;17.54;
46015;BME280;36844;51.898;-0.874;2024-01-15T09:06:02;99920.56;;;17.58;
46015;BME280;36844;51.898;-0.874;2024-01-15T09:08:27;99919.38;;;17.59;
46015;BME280;36844;51.898;-0.874;2024-01-15T09:10:53;99925.91;;;17.61;
46015;BME280;36844;51.898;-0.874;2024-01-15T09:13:18;99906.03;;;17.48;
46015;BME280;36844;51.898;-0.874;2024-01-15T09:15:43;99908.34;;;17.50;
46015;BME280;36844;51.898;-0.874;2024-01-15T09:18:09;99913.28;;;17.51;
46015;BME280;36844;51.898;-0.874;2024-01-15T09:20:35;99924.34;;;17.60;
46015;BME280;36844;51.898;-0.874;2024-01-15T09:23:00;99925.28;;;17.50;
46015;BME280;36844;51.898;-0.874;2024-01-15T09:25:25;99931.38;;;17.54;
46015;BME280;36844;51.898;-0.874;2024-01-15T09:27:51;99922.63;;;17.47;
46015;BME280;36844;51.898;-0.874;2024-01-15T09:30:16;99937.53;;;17.51;
46015;BME280;36844;51.898;-0.874;2024-01-15T09:32:42;99940.69;;;17.46;
46015;BME280;36844;51.898;-0.874;2024-01-15T09:35:07;99936.84;;;17.47;
46015;BME280;36844;51.898;-0.874;2024-01-15T09:37:33;99934.19;;;17.40;
46015;BME280;36844;51.898;-0.874;2024-01-15T09:39:59;99931.56;;;17.37;
46015;BME280;36844;51.898;-0.874;2024-01-15T09:42:24;99943.88;;;17.38;
46015;BME280;36844;51.898;-0.874;2024-01-15T09:44:51;99922.13;;;17.22;
46015;BME280;36844;51.898;-0.874;2024-01-15T09:47:17;99955.00;;;17.36;
46015;BME280;36844;51.898;-0.874;2024-01-15T09:49:44;99942.47;;;17.26;
46015;BME280;36844;51.898;-0.874;2024-01-15T09:52:10;99937.84;;;17.27;
46015;BME280;36844;51.898;-0.874;2024-01-15T09:54:36;99945.97;;;17.23;
46015;BME280;36844;51.898;-0.874;2024-01-15T09:57:02;99964.38;;;17.28;
46015;BME280;36844;51.898;-0.874;2024-01-15T09:59:28;99954.47;;;17.18;
46015;BME280;36844;51.898;-0.874;2024-01-15T10:01:55;99947.94;;;17.19;
46015;BME280;36844;51.898;-0.874;2024-01-15T10:04:21;99946.47;;;17.11;
46015;BME280;36844;51.898;-0.874;2024-01-15T10:06:46;99960.63;;;17.19;
46015;BME280;36844;51.898;-0.874;2024-01-15T10:09:13;99957.16;;;17.18;
46015;BME280;36844;51.898;-0.874;2024-01-15T10:11:42;99962.53;;;17.18;
46015;BME280;36844;51.898;-0.874;2024-01-15T10:14:08;99948.84;;;17.06;
46015;BME280;36844;51.898;-0.874;2024-01-15T10:16:33;99960.38;;;17.06;
46015;BME280;36844;51.898;-0.874;2024-01-15T10:18:59;99978.38;;;17.09;
46015;BME280;36844;51.898;-0.874;2024-01-15T10:21:24;99989.16;;;17.09;
46015;BME280;36844;51.898;-0.874;2024-01-15T10:23:51;99966.19;;;17.01;
46015;BME280;36844;51.898;-0.874;2024-01-15T10:26:17;99963.19;;;16.92;
46015;BME280;36844;51.898;-0.874;2024-01-15T10:28:42;99977.00;;;16.94;
46015;BME280;36844;51.898;-0.874;2024-01-15T10:31:08;99970.53;;;16.88;
46015;BME280;36844;51.898;-0.874;2024-01-15T10:33:33;99959.09;;;16.77;
46015;BME280;36844;51.898;-0.874;2024-01-15T10:36:00;99977.78;;;16.95;
46015;BME280;36844;51.898;-0.874;2024-01-15T10:38:25;99988.94;;;16.93;
46015;BME280;36844;51.898;-0.874;2024-01-15T10:40:52;99990.50;;;16.91;
46015;BME280;36844;51.898;-0.874;2024-01-15T10:43:18;99987.47;;;16.85;
46015;BME280;36844;51.898;-0.874;2024-01-15T10:45:45;99992.44;;;16.87;
46015;BME280;36844;51.898;-0.874;2024-01-15T10:48:10;99985.59;;;16.78;
46015;BME280;36844;51.898;-0.874;2024-01-15T10:50:36;99983.69;;;16.79;
46015;BME280;36844;51.898;-0.874;2024-01-15T10:53:01;99972.22;;;16.71;
46015;BME280;36844;51.898;-0.874;2024-01-15T10:55:28;99971.81;;;16.73;
46015;BME280;36844;51.898;-0.874;2024-01-15T10:57:54;99993.28;;;16.76;
46015;BME280;36844;51.898;-0.874;2024-01-15T11:00:21;99987.56;;;16.71;
46015;BME280;36844;51.898;-0.874;2024-01-15T11:02:47;99973.13;;;16.54;
46015;BME280;36844;51.898;-0.874;2024-01-15T11:05:12;99994.16;;;16.66;
46015;BME280;36844;51.898;-0.874;2024-01-15T11:07:39;99991.47;;;16.66;
46015;BME280;36844;51.898;-0.874;2024-01-15T11:10:05;99985.38;;;16.59;
46015;BME280;36844;51.898;-0.874;2024-01-15T11:12:31;100006.84;;;16.66;
46015;BME280;36844;51.898;-0.874;2024-01-15T11:15:03;99999.91;;;16.65;
46015;BME280;36844;51.898;-0.874;2024-01-15T11:17:59;100012.25;;;16.62;
46015;BME280;36844;51.898;-0.874;2024-01-15T11:20:26;99970.16;;;16.38;
46015;BME280;36844;51.898;-0.874;2024-01-15T11:22:51;100003.06;;;16.53;
46015;BME280;36844;51.898;-0.874;2024-01-15T11:25:20;99982.78;;;16.45;
46015;BME280;36844;51.898;-0.874;2024-01-15T11:27:46;100004.53;;;16.61;
46015;BME280;36844;51.898;-0.874;2024-01-15T11:30:17;99996.91;;;16.56;
46015;BME280;36844;51.898;-0.874;2024-01-15T11:32:42;100001.84;;;16.61;
46015;BME280;36844;51.898;-0.874;2024-01-15T11:35:08;99996.53;;;16.54;
46015;BME280;36844;51.898;-0.874;2024-01-15T11:40:36;100001.91;;;16.54;
46015;BME280;36844;51.898;-0.874;2024-01-15T11:43:03;100011.84;;;16.64;
46015;BME280;36844;51.898;-0.874;2024-01-15T11:45:30;100015.66;;;16.66;
46015;BME280;36844;51.898;-0.874;2024-01-15T11:48:17;100007.97;;;16.65;
46015;BME280;36844;51.898;-0.874;2024-01-15T11:50:48;100010.63;;;16.68;
46015;BME280;36844;51.898;-0.874;2024-01-15T11:53:32;99989.97;;;16.62;
46015;BME280;36844;51.898;-0.874;2024-01-15T11:56:01;99996.88;;;16.63;
46015;BME280;36844;51.898;-0.874;2024-01-15T11:58:27;99976.53;;;16.62;
46015;BME280;36844;51.898;-0.874;2024-01-15T12:00:53;99987.56;;;16.71;
46015;BME280;36844;51.898;-0.874;2024-01-15T12:03:23;100015.16;;;16.82;
46015;BME280;36844;51.898;-0.874;2024-01-15T12:05:49;100015.13;;;16.86;
46015;BME280;36844;51.898;-0.874;2024-01-15T12:08:20;99999.03;;;16.82;
46015;BME280;36844;51.898;-0.874;2024-01-15T12:10:46;99995.91;;;16.87;
46015;BME280;36844;51.898;-0.874;2024-01-15T12:13:13;100002.72;;;16.95;
46015;BME280;36844;51.898;-0.874;2024-01-15T12:15:39;100001.94;;;16.98;
46015;BME280;36844;51.898;-0.874;2024-01-15T12:18:08;99988.97;;;16.90;
46015;BME280;36844;51.898;-0.874;2024-01-15T12:20:34;100000.78;;;16.99;
46015;BME280;36844;51.898;-0.874;2024-01-15T12:23:01;100007.97;;;17.09;
46015;BME280;36844;51.898;-0.874;2024-01-15T12:25:29;99994.25;;;17.00;
46015;BME280;36844;51.898;-0.874;2024-01-15T12:27:55;100007.94;;;17.16;
46015;BME280;36844;51.898;-0.874;2024-01-15T12:30:21;99993.03;;;17.08;
46015;BME280;36844;51.898;-0.874;2024-01-15T12:32:46;99995.63;;;17.15;
46015;BME280;36844;51.898;-0.874;2024-01-15T12:35:13;100012.44;;;17.26;
46015;BME280;36844;51.898;-0.874;2024-01-15T12:37:39;100016.22;;;17.32;
46015;BME280;36844;51.898;-0.874;2024-01-15T12:40:06;100018.47;;;17.37;
46015;BME280;36844;51.898;-0.874;2024-01-15T12:42:33;100009.66;;;17.33;
46015;BME280;36844;51.898;-0.874;2024-01-15T12:45:00;100004.59;;;17.42;
46015;BME280;36844;51.898;-0.874;2024-01-15T12:47:25;100006.13;;;17.43;
46015;BME280;36844;51.898;-0.874;2024-01-15T12:49:52;100026.75;;;17.53;
46015;BME280;36844;51.898;-0.874;2024-01-15T12:52:19;100016.38;;;17.52;
46015;BME280;36844;51.898;-0.874;2024-01-15T12:54:47;100010.59;;;17.53;
46015;BME280;36844;51.898;-0.874;2024-01-15T12:57:12;100006.31;;;17.56;
46015;BME280;36844;51.898;-0.874;2024-01-15T12:59:38;100021.19;;;17.67;
46015;BME280;36844;51.898;-0.874;2024-01-15T13:02:03;100011.56;;;17.70;
46015;BME280;36844;51.898;-0.874;2024-01-15T13:04:28;100002.34;;;17.67;
46015;BME280;36844;51.898;-0.874;2024-01-15T13:06:54;99993.13;;;17.68;
46015;BME280;36844;51.898;-0.874;2024-01-15T13:09:20;100007.31;;;17.72;
46015;BME280;36844;51.898;-0.874;2024-01-15T13:11:45;100010.25;;;17.82;
46015;BME280;36844;51.898;-0.874;2024-01-15T13:14:11;100009.81;;;17.87;
46015;BME280;36844;51.898;-0.874;2024-01-15T13:16:39;100001.78;;;17.83;
46015;BME280;36844;51.898;-0.874;2024-01-15T13:19:04;100014.00;;;17.91;
46015;BME280;36844;51.898;-0.874;2024-01-15T13:21:31;99994.81;;;17.86;
46015;BME280;36844;51.898;-0.874;2024-01-15T13:23:57;99990.94;;;17.87;
46015;BME280;36844;51.898;-0.874;2024-01-15T13:26:22;100003.16;;;17.95;
46015;BME280;36844;51.898;-0.874;2024-01-15T13:28:47;99998.25;;;17.90;
46015;BME280;36844;51.898;-0.874;2024-01-15T13:31:12;99998.59;;;17.92;
46015;BME280;36844;51.898;-0.874;2024-01-15T13:33:38;99983.22;;;17.89;
46015;BME280;36844;51.898;-0.874;2024-01-15T13:36:04;99992.38;;;17.95;
46015;BME280;36844;51.898;-0.874;2024-01-15T13:38:33;99982.50;;;17.85;
46015;BME280;36844;51.898;-0.874;2024-01-15T13:41:02;99981.66;;;17.91;
46015;BME280;36844;51.898;-0.874;2024-01-15T13:43:27;99984.34;;;17.91;